createdAt,value
2023-05-25T00:02:31.310Z,11.81
2023-05-25T00:05:02.694Z,11.83
2023-05-25T00:07:35.583Z,11.76
2023-05-25T00:10:10.627Z,11.77
2023-05-25T00:12:43.403Z,11.74
2023-05-25T00:15:17.256Z,11.74
2023-05-25T00:17:50.794Z,11.71
2023-05-25T00:20:21.511Z,11.71
2023-05-25T00:23:06.408Z,11.65
2023-05-25T00:25:39.181Z,11.70
2023-05-25T00:28:12.345Z,11.72
2023-05-25T00:30:44.853Z,11.69
2023-05-25T00:33:18.266Z,11.70
2023-05-25T00:35:51.224Z,11.68
2023-05-25T00:38:24.174Z,11.66
2023-05-25T00:40:58.423Z,11.66
2023-05-25T00:43:31.015Z,11.65
2023-05-25T00:46:04.947Z,11.68
2023-05-25T00:48:38.255Z,11.66
2023-05-25T00:51:11.811Z,11.65
2023-05-25T00:53:43.322Z,11.64
2023-05-25T00:56:21.452Z,11.60
2023-05-25T00:58:57.313Z,11.60
2023-05-25T01:01:33.869Z,11.58
2023-05-25T01:04:07.910Z,11.56
2023-05-25T01:06:41.685Z,11.57
2023-05-25T01:09:18.406Z,11.56
2023-05-25T01:11:54.192Z,11.54
2023-05-25T01:14:27.236Z,11.54
2023-05-25T01:17:03.848Z,11.54
2023-05-25T01:19:38.633Z,11.49
2023-05-25T01:22:19.644Z,11.49
2023-05-25T01:24:57.973Z,11.49
2023-05-25T01:27:39.209Z,11.47
2023-05-25T01:30:16.462Z,11.45
2023-05-25T01:32:51.580Z,11.44
2023-05-25T01:35:25.997Z,11.47
2023-05-25T01:38:02.015Z,11.50
2023-05-25T01:40:35.429Z,11.47
2023-05-25T01:43:09.522Z,11.47
2023-05-25T01:45:42.699Z,11.48
2023-05-25T01:48:22.052Z,11.48
2023-05-25T01:50:59.982Z,11.49
2023-05-25T01:53:37.674Z,11.51
2023-05-25T01:56:13.088Z,11.50
2023-05-25T01:58:48.224Z,11.51
2023-05-25T02:01:23.148Z,11.52
2023-05-25T02:03:56.171Z,11.52
2023-05-25T02:06:29.142Z,11.46
2023-05-25T02:09:01.950Z,11.46
2023-05-25T02:11:34.509Z,11.48
2023-05-25T02:14:07.392Z,11.44
2023-05-25T02:16:40.160Z,11.36
2023-05-25T02:19:13.084Z,11.40
2023-05-25T02:21:46.451Z,11.47
2023-05-25T02:24:19.135Z,11.46
2023-05-25T02:26:52.074Z,11.44
2023-05-25T02:29:25.075Z,11.35
2023-05-25T02:31:57.825Z,11.36
2023-05-25T02:34:30.997Z,11.37
2023-05-25T02:37:04.104Z,11.38
2023-05-25T02:39:37.005Z,11.38
2023-05-25T02:42:10.088Z,11.40
2023-05-25T02:44:43.166Z,11.42
2023-05-25T02:47:15.721Z,11.41
2023-05-25T02:49:48.395Z,11.40
2023-05-25T02:52:21.685Z,11.39
2023-05-25T02:54:55.294Z,11.40
2023-05-25T02:57:34.554Z,11.38
2023-05-25T03:00:08.661Z,11.39
2023-05-25T03:02:42.048Z,11.40
2023-05-25T03:05:15.005Z,11.38
2023-05-25T03:07:48.210Z,11.36
2023-05-25T03:10:21.470Z,11.37
2023-05-25T03:12:53.404Z,11.37
2023-05-25T03:15:26.333Z,11.32
2023-05-25T03:18:01.805Z,11.34
2023-05-25T03:20:37.495Z,11.31
2023-05-25T03:23:10.392Z,11.32
2023-05-25T03:25:44.290Z,11.34
2023-05-25T03:28:16.914Z,11.32
2023-05-25T03:30:49.938Z,11.31
2023-05-25T03:33:21.552Z,11.33
2023-05-25T03:35:54.497Z,11.26
2023-05-25T03:38:27.107Z,11.31
2023-05-25T03:41:00.377Z,11.33
2023-05-25T03:43:33.395Z,11.35
2023-05-25T03:46:06.376Z,11.37
2023-05-25T03:48:37.787Z,11.35
2023-05-25T03:51:10.648Z,11.30
2023-05-25T03:53:43.731Z,11.33
2023-05-25T03:56:16.352Z,11.36
2023-05-25T03:58:49.408Z,11.36
2023-05-25T04:01:26.838Z,11.36
2023-05-25T04:03:59.945Z,11.37
2023-05-25T04:06:32.695Z,11.37
2023-05-25T04:09:06.491Z,11.36
2023-05-25T04:11:39.133Z,11.33
2023-05-25T04:14:12.004Z,11.37
2023-05-25T04:16:46.696Z,11.41
2023-05-25T04:19:20.477Z,11.43
2023-05-25T04:21:53.512Z,11.46
2023-05-25T04:24:26.900Z,11.45
2023-05-25T04:26:59.504Z,11.46
2023-05-25T04:29:33.212Z,11.48
2023-05-25T04:32:24.433Z,11.52
2023-05-25T04:35:01.761Z,11.54
2023-05-25T04:37:42.150Z,11.54
2023-05-25T04:40:16.062Z,11.55
2023-05-25T04:42:49.661Z,11.53
2023-05-25T04:45:21.930Z,11.52
2023-05-25T04:47:54.421Z,11.45
2023-05-25T04:50:27.196Z,11.51
2023-05-25T04:52:59.849Z,11.54
2023-05-25T04:55:33.006Z,11.56
2023-05-25T04:58:06.114Z,11.60
2023-05-25T05:00:40.602Z,11.62
2023-05-25T05:03:13.861Z,11.65
2023-05-25T05:05:47.507Z,11.65
2023-05-25T05:08:27.092Z,11.65
2023-05-25T05:11:00.124Z,11.66
2023-05-25T05:13:31.700Z,11.67
2023-05-25T05:16:04.899Z,11.66
2023-05-25T05:18:37.845Z,11.69
2023-05-25T05:21:10.662Z,11.69
2023-05-25T05:23:44.224Z,11.67
2023-05-25T05:26:18.516Z,11.67
2023-05-25T05:28:52.909Z,11.71
2023-05-25T05:31:29.949Z,11.76
2023-05-25T05:34:02.870Z,11.79
2023-05-25T05:36:45.301Z,11.82
2023-05-25T05:39:32.000Z,11.83
2023-05-25T05:42:07.262Z,11.89
2023-05-25T05:44:39.856Z,11.90
2023-05-25T05:47:12.992Z,11.90
2023-05-25T05:49:45.435Z,11.92
2023-05-25T05:52:18.236Z,11.94
2023-05-25T05:54:50.788Z,12.01
2023-05-25T05:57:23.694Z,12.07
2023-05-25T05:59:56.330Z,12.09
2023-05-25T06:02:29.218Z,12.14
2023-05-25T06:05:02.944Z,12.16
2023-05-25T06:07:36.114Z,12.18
2023-05-25T06:10:07.796Z,12.20
2023-05-25T06:12:40.742Z,12.19
2023-05-25T06:15:16.483Z,12.22
2023-05-25T06:17:51.594Z,12.27
2023-05-25T06:20:24.769Z,12.24
2023-05-25T06:22:57.546Z,12.24
2023-05-25T06:25:30.207Z,12.23
2023-05-25T06:28:04.947Z,12.25
2023-05-25T06:30:38.258Z,12.24
2023-05-25T06:33:13.723Z,12.27
2023-05-25T06:35:47.500Z,12.26
2023-05-25T06:38:24.450Z,12.29
2023-05-25T06:41:03.084Z,12.28
2023-05-25T06:43:36.140Z,12.27
2023-05-25T06:46:39.345Z,12.32
2023-05-25T06:49:12.579Z,12.36
2023-05-25T06:51:47.044Z,12.37
2023-05-25T06:54:20.087Z,12.42
2023-05-25T06:56:53.978Z,12.45
2023-05-25T06:59:26.759Z,12.46
2023-05-25T07:02:00.791Z,12.45
2023-05-25T07:04:33.654Z,12.45
2023-05-25T07:07:07.223Z,12.44
2023-05-25T07:09:40.291Z,12.47
2023-05-25T07:12:13.104Z,12.50
2023-05-25T07:14:48.690Z,12.54
2023-05-25T07:17:22.277Z,12.58
2023-05-25T07:19:55.026Z,12.57
2023-05-25T07:22:27.906Z,12.57
2023-05-25T07:25:00.608Z,12.61
2023-05-25T07:27:34.137Z,12.62
2023-05-25T07:30:08.937Z,12.63
2023-05-25T07:32:41.646Z,12.61
2023-05-25T07:35:14.505Z,12.61
2023-05-25T07:37:47.231Z,12.62
2023-05-25T07:40:24.237Z,12.57
2023-05-25T07:42:58.147Z,12.60
2023-05-25T07:45:31.025Z,12.56
2023-05-25T07:48:04.331Z,12.56
2023-05-25T07:50:37.216Z,12.59
2023-05-25T07:53:10.319Z,12.65
2023-05-25T07:55:43.554Z,12.68
2023-05-25T07:58:17.054Z,12.73
2023-05-25T08:00:49.735Z,12.78
2023-05-25T08:03:31.910Z,12.76
2023-05-25T08:06:13.761Z,12.83
2023-05-25T08:08:47.586Z,12.90
2023-05-25T08:11:23.855Z,12.92
2023-05-25T08:14:00.723Z,13.00
2023-05-25T08:16:39.248Z,13.02
2023-05-25T08:19:15.033Z,13.07
2023-05-25T08:21:48.074Z,13.10
2023-05-25T08:24:21.032Z,13.14
2023-05-25T08:26:55.061Z,13.16
2023-05-25T08:29:28.090Z,13.20
2023-05-25T08:32:00.714Z,13.21
2023-05-25T08:34:33.581Z,13.25
2023-05-25T08:37:07.211Z,13.22
2023-05-25T08:39:40.037Z,13.21
2023-05-25T08:42:13.836Z,13.22
2023-05-25T08:44:46.775Z,13.23
2023-05-25T08:47:24.158Z,13.28
2023-05-25T08:49:58.227Z,13.31
2023-05-25T08:52:35.048Z,13.41
2023-05-25T08:55:10.277Z,13.42
2023-05-25T08:57:54.440Z,13.45
2023-05-25T09:00:31.690Z,13.48
2023-05-25T09:03:11.108Z,13.54
2023-05-25T09:05:44.307Z,13.61
2023-05-25T09:08:22.176Z,13.61
2023-05-25T09:10:57.183Z,13.66
2023-05-25T09:13:35.378Z,13.68
2023-05-25T09:16:11.678Z,13.73
2023-05-25T09:18:44.508Z,13.76
2023-05-25T09:21:16.567Z,13.77
2023-05-25T09:23:49.401Z,13.78
2023-05-25T09:26:22.944Z,13.86
2023-05-25T09:28:56.172Z,13.84
2023-05-25T09:31:30.020Z,13.87
2023-05-25T09:34:02.986Z,13.88
2023-05-25T09:36:46.384Z,13.91
2023-05-25T09:39:20.729Z,13.93
2023-05-25T09:41:53.865Z,13.96
2023-05-25T09:44:26.701Z,13.97
2023-05-25T09:46:59.722Z,14.00
2023-05-25T09:49:32.636Z,14.08
2023-05-25T09:52:05.969Z,14.15
2023-05-25T09:54:38.604Z,14.20
2023-05-25T09:57:13.675Z,14.17
2023-05-25T09:59:47.539Z,14.24
2023-05-25T10:02:23.248Z,14.34
2023-05-25T10:04:56.098Z,14.42
2023-05-25T10:07:31.449Z,14.44
2023-05-25T10:10:10.493Z,14.48
2023-05-25T10:12:47.384Z,14.56
2023-05-25T10:15:21.342Z,14.62
2023-05-25T10:17:56.972Z,14.63
2023-05-25T10:20:31.511Z,14.68
2023-05-25T10:23:12.522Z,14.65
2023-05-25T10:25:49.109Z,14.69
2023-05-25T10:28:30.136Z,14.74
2023-05-25T10:31:04.990Z,14.77
2023-05-25T10:33:38.822Z,14.87
2023-05-25T10:36:14.596Z,15.00
2023-05-25T10:38:48.005Z,15.07
2023-05-25T10:41:25.960Z,15.09
2023-05-25T10:43:59.824Z,15.06
2023-05-25T10:46:33.254Z,15.05
2023-05-25T10:49:12.423Z,15.05
2023-05-25T10:51:45.432Z,15.07
2023-05-25T10:54:20.064Z,15.16
2023-05-25T10:57:14.600Z,15.26
2023-05-25T10:59:49.929Z,15.37
2023-05-25T11:02:24.982Z,15.46
2023-05-25T11:05:43.389Z,15.50
2023-05-25T11:08:18.401Z,15.50
2023-05-25T11:11:00.565Z,15.52
2023-05-25T11:13:46.389Z,15.51
2023-05-25T11:16:24.786Z,15.48
2023-05-25T11:18:59.675Z,15.44
2023-05-25T11:21:46.262Z,15.37
2023-05-25T11:24:20.103Z,15.43
2023-05-25T11:27:02.372Z,15.48
2023-05-25T11:29:38.241Z,15.52
2023-05-25T11:32:18.183Z,15.53
2023-05-25T11:34:53.735Z,15.56
2023-05-25T11:37:29.586Z,15.59
2023-05-25T11:40:03.027Z,15.57
2023-05-25T11:42:37.585Z,15.51
2023-05-25T11:45:17.036Z,15.53
2023-05-25T11:47:50.482Z,15.53
2023-05-25T11:50:24.313Z,15.58
2023-05-25T11:52:57.386Z,15.57
2023-05-25T11:55:36.381Z,15.56
2023-05-25T11:58:11.397Z,15.63
2023-05-25T12:00:48.028Z,15.72
2023-05-25T12:03:34.535Z,15.77
2023-05-25T12:06:08.603Z,15.84
2023-05-25T12:08:41.464Z,15.95
2023-05-25T12:11:17.073Z,16.02
2023-05-25T12:13:50.241Z,16.07
2023-05-25T12:16:23.990Z,16.05
2023-05-25T12:18:57.469Z,15.99
2023-05-25T12:21:32.911Z,16.00
2023-05-25T12:24:06.597Z,15.96
2023-05-25T12:26:50.736Z,16.00
2023-05-25T12:29:24.540Z,16.08
2023-05-25T12:32:03.396Z,16.06
2023-05-25T12:34:37.254Z,16.07
2023-05-25T12:37:21.558Z,16.18
2023-05-25T12:39:55.582Z,16.31
2023-05-25T12:42:32.941Z,16.43
2023-05-25T12:45:09.064Z,16.48
2023-05-25T12:47:47.415Z,16.46
2023-05-25T12:50:21.191Z,16.55
2023-05-25T12:53:02.864Z,16.56
2023-05-25T12:55:36.468Z,16.60
2023-05-25T12:58:09.975Z,16.62
2023-05-25T13:00:41.417Z,16.62
2023-05-25T13:03:14.503Z,16.53
2023-05-25T13:05:48.552Z,16.58
2023-05-25T13:08:21.294Z,16.56
2023-05-25T13:10:54.273Z,16.62
2023-05-25T13:13:25.687Z,16.63
2023-05-25T13:15:58.835Z,16.57
2023-05-25T13:18:29.772Z,16.65
2023-05-25T13:21:02.885Z,16.65
2023-05-25T13:23:34.034Z,16.65
2023-05-25T13:26:07.034Z,16.61
2023-05-25T13:28:39.939Z,16.71
2023-05-25T13:31:12.621Z,16.68
2023-05-25T13:33:45.651Z,16.63
2023-05-25T13:36:18.449Z,16.63
2023-05-25T13:38:51.313Z,16.61
2023-05-25T13:41:24.215Z,16.63
2023-05-25T13:43:56.925Z,16.62
2023-05-25T13:46:34.976Z,16.63
2023-05-25T13:49:08.325Z,16.61
2023-05-25T13:51:41.734Z,16.65
2023-05-25T13:54:13.249Z,16.65
2023-05-25T13:56:46.125Z,16.58
2023-05-25T13:59:17.260Z,16.56
2023-05-25T14:01:49.946Z,16.46
2023-05-25T14:04:22.903Z,16.50
2023-05-25T14:06:57.422Z,16.56
2023-05-25T14:09:30.080Z,16.59
2023-05-25T14:12:03.324Z,16.59
2023-05-25T14:14:38.721Z,16.61
2023-05-25T14:17:11.385Z,16.61
2023-05-25T14:19:44.552Z,16.58
2023-05-25T14:22:17.434Z,16.51
2023-05-25T14:24:51.775Z,16.52
2023-05-25T14:27:24.311Z,16.51
2023-05-25T14:29:57.698Z,16.50
2023-05-25T14:32:30.282Z,16.42
2023-05-25T14:35:04.384Z,16.37
2023-05-25T14:37:38.860Z,16.37
2023-05-25T14:40:15.407Z,16.37
2023-05-25T14:42:48.210Z,16.36
2023-05-25T14:45:21.215Z,16.40
2023-05-25T14:48:00.854Z,16.41
2023-05-25T14:50:42.203Z,16.37
2023-05-25T14:53:16.357Z,16.40
2023-05-25T14:55:49.045Z,16.40
2023-05-25T14:58:22.158Z,16.38
2023-05-25T15:00:55.061Z,16.28
2023-05-25T15:03:29.491Z,16.21
2023-05-25T15:06:03.249Z,16.24
2023-05-25T15:08:34.206Z,16.27
2023-05-25T15:11:06.931Z,16.26
2023-05-25T15:13:41.564Z,16.28
2023-05-25T15:16:16.576Z,16.26
2023-05-25T15:18:49.302Z,16.33
2023-05-25T15:21:21.900Z,16.32
2023-05-25T15:23:54.470Z,16.36
2023-05-25T15:26:30.809Z,16.37
2023-05-25T15:29:04.247Z,16.33
2023-05-25T15:31:36.964Z,16.34
2023-05-25T15:34:09.628Z,16.35
2023-05-25T15:36:42.340Z,16.34
2023-05-25T15:39:15.744Z,16.42
2023-05-25T15:41:48.409Z,16.43
2023-05-25T15:44:22.843Z,16.50
2023-05-25T15:46:55.467Z,16.55
2023-05-25T15:49:28.106Z,16.60
2023-05-25T15:52:01.812Z,16.65
2023-05-25T15:54:34.466Z,16.69
2023-05-25T15:57:07.758Z,16.74
2023-05-25T15:59:40.527Z,16.77
2023-05-25T16:02:13.531Z,16.81
2023-05-25T16:04:46.465Z,16.83
2023-05-25T16:07:20.082Z,16.85
2023-05-25T16:09:53.090Z,16.90
2023-05-25T16:12:26.648Z,16.98
2023-05-25T16:15:00.218Z,17.07
2023-05-25T16:17:33.081Z,17.10
2023-05-25T16:20:07.177Z,17.13
2023-05-25T16:22:39.826Z,17.06
2023-05-25T16:25:14.400Z,17.04
2023-05-25T16:27:46.932Z,17.07
2023-05-25T16:30:19.755Z,17.09
2023-05-25T16:32:54.629Z,17.04
2023-05-25T16:35:27.533Z,17.00
2023-05-25T16:38:03.101Z,17.07
2023-05-25T16:40:37.385Z,17.05
2023-05-25T16:43:10.006Z,17.06
2023-05-25T16:45:42.698Z,17.05
2023-05-25T16:48:15.445Z,17.01
2023-05-25T16:50:48.317Z,17.01
2023-05-25T16:53:20.939Z,16.92
2023-05-25T16:55:54.407Z,16.91
2023-05-25T16:58:27.049Z,16.91
2023-05-25T17:01:00.022Z,16.90
2023-05-25T17:03:32.995Z,16.86
2023-05-25T17:06:11.413Z,16.86
2023-05-25T17:08:44.263Z,16.86
2023-05-25T17:11:17.798Z,16.83
2023-05-25T17:13:53.455Z,16.76
2023-05-25T17:16:26.442Z,16.71
2023-05-25T17:19:00.892Z,16.65
2023-05-25T17:21:33.374Z,16.58
2023-05-25T17:24:06.613Z,16.51
2023-05-25T17:26:37.513Z,16.45
2023-05-25T17:29:10.095Z,16.33
2023-05-25T17:31:42.902Z,16.34
2023-05-25T17:34:15.628Z,16.33
2023-05-25T17:36:48.558Z,16.28
2023-05-25T17:39:21.266Z,16.23
2023-05-25T17:41:53.800Z,16.20
2023-05-25T17:44:28.647Z,16.16
2023-05-25T17:47:01.516Z,16.11
2023-05-25T17:49:34.406Z,16.08
2023-05-25T17:52:08.039Z,16.00
2023-05-25T17:54:40.686Z,15.92
2023-05-25T17:57:13.871Z,15.87
2023-05-25T17:59:45.750Z,15.82
2023-05-25T18:02:18.951Z,15.68
2023-05-25T18:04:52.322Z,15.65
2023-05-25T18:07:25.527Z,15.58
2023-05-25T18:10:00.264Z,15.51
2023-05-25T18:12:32.975Z,15.44
2023-05-25T18:15:06.823Z,15.35
2023-05-25T18:17:39.452Z,15.25
2023-05-25T18:20:14.083Z,15.15
2023-05-25T18:22:46.991Z,15.06
2023-05-25T18:25:19.915Z,14.98
2023-05-25T18:27:52.813Z,14.92
2023-05-25T18:30:25.485Z,14.85
2023-05-25T18:32:58.323Z,14.82
2023-05-25T18:35:31.469Z,14.79
2023-05-25T18:38:04.451Z,14.74
2023-05-25T18:40:37.484Z,14.68
2023-05-25T18:43:09.963Z,14.63
2023-05-25T18:45:42.963Z,14.57
2023-05-25T18:48:19.204Z,14.49
2023-05-25T18:50:51.937Z,14.40
2023-05-25T18:53:25.656Z,14.34
2023-05-25T18:55:58.350Z,14.31
2023-05-25T18:58:31.606Z,14.27
2023-05-25T19:01:02.652Z,14.23
2023-05-25T19:03:35.289Z,14.10
2023-05-25T19:06:09.914Z,14.10
2023-05-25T19:08:42.398Z,14.06
2023-05-25T19:11:15.940Z,14.04
2023-05-25T19:13:46.635Z,13.98
2023-05-25T19:16:19.413Z,13.89
2023-05-25T19:18:52.396Z,13.90
2023-05-25T19:21:24.995Z,13.88
2023-05-25T19:23:58.595Z,13.84
2023-05-25T19:26:31.380Z,13.83
2023-05-25T19:29:03.993Z,13.80
2023-05-25T19:31:36.810Z,13.75
2023-05-25T19:34:09.320Z,13.70
2023-05-25T19:36:42.491Z,13.67
2023-05-25T19:39:15.216Z,13.62
2023-05-25T19:41:47.996Z,13.56
2023-05-25T19:44:20.486Z,13.53
2023-05-25T19:46:53.705Z,13.48
2023-05-25T19:49:26.437Z,13.39
2023-05-25T19:51:59.555Z,13.32
2023-05-25T19:54:34.947Z,13.23
2023-05-25T19:57:08.339Z,13.21
2023-05-25T19:59:39.338Z,13.21
2023-05-25T20:02:12.826Z,13.13
2023-05-25T20:04:46.117Z,13.16
2023-05-25T20:07:21.546Z,13.18
2023-05-25T20:09:54.368Z,13.19
2023-05-25T20:12:26.989Z,13.22
2023-05-25T20:14:59.784Z,13.22
2023-05-25T20:17:32.300Z,13.22
2023-05-25T20:20:05.978Z,13.22
2023-05-25T20:22:40.108Z,13.23
2023-05-25T20:25:13.351Z,13.24
2023-05-25T20:27:48.406Z,13.26
2023-05-25T20:30:21.701Z,13.27
2023-05-25T20:32:52.578Z,13.28
2023-05-25T20:35:25.841Z,13.22
2023-05-25T20:38:00.248Z,13.24
2023-05-25T20:40:33.480Z,13.26
2023-05-25T20:43:06.338Z,13.29
2023-05-25T20:45:41.978Z,13.31
2023-05-25T20:48:15.903Z,13.33
2023-05-25T20:50:48.334Z,13.35
2023-05-25T20:53:21.166Z,13.36
2023-05-25T20:55:55.153Z,13.37
2023-05-25T20:58:28.304Z,13.39
2023-05-25T21:01:01.260Z,13.40
2023-05-25T21:03:35.923Z,13.39
2023-05-25T21:06:08.962Z,13.38
2023-05-25T21:08:40.267Z,13.39
2023-05-25T21:11:12.926Z,13.34
2023-05-25T21:13:46.794Z,13.35
2023-05-25T21:16:19.554Z,13.35
2023-05-25T21:18:54.887Z,13.33
2023-05-25T21:21:34.133Z,13.35
2023-05-25T21:24:07.475Z,13.35
2023-05-25T21:26:40.230Z,13.35
2023-05-25T21:29:13.188Z,13.36
2023-05-25T21:31:47.519Z,13.36
2023-05-25T21:34:20.312Z,13.36
2023-05-25T21:36:53.143Z,13.36
2023-05-25T21:39:26.293Z,13.35
2023-05-25T21:41:59.654Z,13.37
2023-05-25T21:44:32.400Z,13.35
2023-05-25T21:47:05.851Z,13.35
2023-05-25T21:49:38.475Z,13.37
2023-05-25T21:52:24.296Z,13.36
2023-05-25T21:54:57.008Z,13.34
2023-05-25T21:57:29.493Z,13.34
2023-05-25T22:00:02.499Z,13.31
2023-05-25T22:02:45.121Z,13.33
2023-05-25T22:05:18.288Z,13.34
2023-05-25T22:07:51.368Z,13.35
2023-05-25T22:10:24.985Z,13.35
2023-05-25T22:12:58.048Z,13.37
2023-05-25T22:15:32.289Z,13.36
2023-05-25T22:18:06.360Z,13.36
2023-05-25T22:20:42.467Z,13.35
2023-05-25T22:23:17.780Z,13.36
2023-05-25T22:25:50.419Z,13.35
2023-05-25T22:28:23.317Z,13.34
2023-05-25T22:30:56.572Z,13.33
2023-05-25T22:33:29.143Z,13.30
2023-05-25T22:36:02.094Z,13.30
2023-05-25T22:38:34.598Z,13.28
2023-05-25T22:41:09.951Z,13.26
2023-05-25T22:43:42.407Z,13.23
2023-05-25T22:46:24.725Z,13.21
2023-05-25T22:48:58.329Z,13.19
2023-05-25T22:51:31.332Z,13.18
2023-05-25T22:54:03.966Z,13.17
2023-05-25T22:56:36.767Z,13.15
2023-05-25T22:59:09.221Z,13.15
2023-05-25T23:01:41.857Z,13.11
2023-05-25T23:04:14.681Z,13.09
2023-05-25T23:06:47.641Z,13.08
2023-05-25T23:09:22.758Z,13.07
2023-05-25T23:11:56.194Z,13.03
2023-05-25T23:14:30.962Z,13.02
2023-05-25T23:17:03.708Z,13.02
2023-05-25T23:19:36.191Z,13.01
2023-05-25T23:22:09.161Z,13.02
2023-05-25T23:24:41.985Z,13.01
2023-05-25T23:27:14.798Z,13.00
2023-05-25T23:29:47.385Z,13.00
2023-05-25T23:32:19.972Z,13.01
2023-05-25T23:34:54.058Z,13.01
2023-05-25T23:37:27.579Z,13.00
2023-05-25T23:40:00.253Z,13.00
2023-05-25T23:42:38.840Z,13.00
2023-05-25T23:45:14.017Z,12.99
2023-05-25T23:47:46.690Z,12.99
2023-05-25T23:50:19.592Z,12.99
2023-05-25T23:52:53.326Z,13.00
2023-05-25T23:55:26.098Z,12.98
2023-05-25T23:57:58.812Z,13.00
